Latest Weather Observations for Beerburrum

IDQ60901

Issued at 6:25 pm EST Thursday 27 November 2014 (issued every 10 minutes, with the page automatically refreshed every 10 minutes)

About weather observations | Map of Brisbane area stations | Latest observations for Brisbane area | Other Formats
Station Details ID: 040284 Name: BEERBURRUM FOREST STATION Lat: -26.96 Lon: 152.96 Height: 48.0 m
Data from the previous 72 hours. | See also: Recent months at Beerburrum
Date/Time
EST
Tmp

°C
App
Tmp
°C
Dew
Point
°C
Rel
Hum
%
Delta-T

°C
Wind Press
QNH
hPa
Press
MSL
hPa
Rain
since
9 am
mm
Dir
 
Spd
km/h
Gust
km/h
Spd
kts
Gust
kts
27/06:00pm 21.3 20.4 16.9 76 2.7 S 17 39 9 21 - - 0.8
27/05:30pm 26.1 26.6 16.6 55 5.9 E 9 15 5 8 - - 0.0
27/05:00pm 27.4 28.7 17.6 55 6.2 E 7 13 4 7 - - 0.0
27/04:30pm 28.4 29.3 17.6 52 6.8 ENE 9 17 5 9 - - 0.0
27/04:00pm 28.7 28.8 15.6 45 8.1 E 9 19 5 10 - - 0.0
27/03:30pm 29.3 29.7 15.4 42 8.5 ENE 7 17 4 9 - - 0.0
27/03:00pm 29.8 30.3 16.6 45 8.3 E 9 17 5 9 - - 0.0
27/02:30pm 30.6 32.4 18.7 49 7.7 ENE 7 15 4 8 - - 0.0
27/02:00pm 30.3 31.6 18.4 49 7.7 ENE 9 20 5 11 - - 0.0
27/01:30pm 30.3 31.1 18.1 48 7.8 E 11 20 6 11 - - 0.0
27/01:00pm 30.7 31.4 17.0 43 8.7 E 9 17 5 9 - - 0.0
27/12:30pm 30.4 31.0 17.8 46 8.1 ENE 11 20 6 11 - - 0.0
27/12:00pm 30.5 31.1 16.9 44 8.6 ENE 9 15 5 8 - - 0.0
27/11:30am 30.1 30.3 15.8 42 8.9 E 9 15 5 8 - - 0.0
27/11:00am 29.6 30.3 17.1 47 7.9 NNE 9 13 5 7 - - 0.0
27/10:30am 29.3 30.6 17.5 49 7.5 NNE 7 13 4 7 - - 0.0
27/10:00am 29.3 30.4 18.1 51 7.2 NNW 9 15 5 8 - - 0.0
27/09:30am 28.3 30.3 18.7 56 6.2 E 6 11 3 6 - - 0.0
27/09:00am 26.5 27.6 16.7 55 6.1 N 6 9 3 5 - - 0.0
27/08:30am 27.1 28.1 18.7 60 5.4 N 11 15 6 8 - - 0.0
27/08:00am 26.1 28.2 18.2 61 5.0 NNE 4 9 2 5 - - 0.0
27/07:30am 25.3 28.0 18.7 67 4.2 NW 2 7 1 4 - - 0.0
27/07:00am 24.9 28.1 18.8 69 3.9 CALM 0 0 0 0 - - 0.0
27/06:30am 23.0 26.4 19.4 80 2.3 CALM 0 0 0 0 - - 0.0
27/06:00am 22.0 25.7 19.9 88 1.3 CALM 0 0 0 0 - - 0.0
27/05:30am 20.9 24.2 19.2 90 1.1 CALM 0 0 0 0 - - 0.0
27/05:00am 20.8 24.1 19.1 90 1.1 CALM 0 0 0 0 - - 0.0
27/04:30am 20.9 24.2 19.2 90 1.1 CALM 0 0 0 0 - - 0.0
27/04:00am 20.7 24.0 19.0 90 1.1 CALM 0 0 0 0 - - 0.0
27/03:30am 21.0 24.3 19.1 89 1.2 CALM 0 0 0 0 - - 0.0
27/03:00am 20.9 23.9 19.2 90 1.1 WNW 2 6 1 3 - - 0.0
27/02:30am 20.9 24.2 19.0 89 1.2 CALM 0 0 0 0 - - 0.0
27/02:00am 20.9 24.2 19.2 90 1.1 CALM 0 0 0 0 - - 0.0
27/01:30am 20.9 24.1 18.8 88 1.3 CALM 0 0 0 0 - - 0.0
27/01:00am 21.1 23.3 19.2 89 1.2 NE 6 11 3 6 - - 0.0
27/12:30am 20.9 24.2 19.0 89 1.2 CALM 0 7 0 4 - - 0.0
27/12:00am 21.3 24.6 19.2 88 1.3 CALM 0 6 0 3 - - 0.0
 
Date/Time
EST
Tmp

°C
App
Tmp
°C
Dew
Point
°C
Rel
Hum
%
Delta-T

°C
Wind Press
QNH
hPa
Press
MSL
hPa
Rain
since
9 am
mm
Dir
 
Spd
km/h
Gust
km/h
Spd
kts
Gust
kts
26/11:30pm 21.3 24.6 19.2 88 1.3 CALM 0 0 0 0 - - 0.0
26/11:00pm 21.5 24.8 19.2 87 1.5 CALM 0 4 0 2 - - 0.0
26/10:30pm 21.8 25.2 19.4 86 1.5 CALM 0 0 0 0 - - 0.0
26/10:00pm 22.0 25.4 19.4 85 1.7 CALM 0 0 0 0 - - 0.0
26/09:30pm 22.2 25.7 19.6 85 1.7 CALM 0 0 0 0 - - 0.0
26/09:00pm 22.2 25.5 19.2 83 1.9 CALM 0 0 0 0 - - 0.0
26/08:30pm 22.1 25.4 19.1 83 1.9 CALM 0 0 0 0 - - 0.0
26/08:00pm 22.6 25.9 19.2 81 2.2 CALM 0 0 0 0 - - 0.0
26/07:30pm 23.1 26.5 19.3 79 2.4 CALM 0 0 0 0 - - 0.0
26/07:00pm 23.3 26.6 19.0 77 2.7 CALM 0 0 0 0 - - 0.0
26/06:30pm 23.7 27.0 19.0 75 3.0 CALM 0 6 0 3 - - 0.0
26/06:00pm 24.5 26.5 18.7 70 3.7 ENE 6 9 3 5 - - 0.0
26/05:30pm 25.1 27.5 18.8 68 4.0 NE 4 13 2 7 - - 0.0
26/05:00pm 25.6 27.1 18.0 63 4.8 E 7 13 4 7 - - 0.0
26/04:30pm 26.6 28.3 18.5 61 5.2 E 7 13 4 7 - - 0.0
26/04:00pm 27.2 28.9 18.5 59 5.6 E 7 11 4 6 - - 0.0
26/03:30pm 28.5 29.5 18.6 55 6.4 E 11 17 6 9 - - 0.0
26/03:00pm 28.6 29.9 19.2 56 6.1 E 11 20 6 11 - - 0.0
26/02:30pm 28.5 29.7 18.3 54 6.5 ENE 9 19 5 10 - - 0.0
26/02:00pm 28.3 29.2 18.4 55 6.3 E 11 20 6 11 - - 0.0
26/01:30pm 28.8 29.5 18.9 55 6.4 E 13 19 7 10 - - 0.0
26/01:00pm 29.3 30.2 18.4 51 7.0 ENE 11 19 6 10 - - 0.0
26/12:30pm 29.4 30.2 18.2 51 7.2 E 11 17 6 9 - - 0.0
26/12:00pm 30.0 31.9 20.5 56 6.3 E 11 24 6 13 - - 0.0
26/11:30am 29.2 30.2 18.6 52 6.8 E 11 22 6 12 - - 0.0
26/11:00am 29.3 31.3 19.9 57 6.2 E 9 19 5 10 - - 0.0
26/10:30am 27.9 28.6 18.9 58 5.8 NNE 13 22 7 12 - - 0.0
26/10:00am 28.0 30.2 20.3 63 5.1 ENE 9 19 5 10 - - 0.0
26/09:30am 26.5 28.5 19.9 67 4.3 NNE 9 20 5 11 - - 0.0
26/09:00am 25.1 27.5 20.1 74 3.3 NNE 7 11 4 6 - - 2.8
26/08:30am 25.1 27.3 19.7 72 3.5 NNE 7 13 4 7 - - 2.8
26/08:00am 25.0 27.9 20.7 77 2.8 NNE 6 11 3 6 - - 2.8
26/07:30am 24.9 27.4 20.2 75 3.1 N 7 11 4 6 - - 2.8
26/07:00am 24.3 27.3 21.2 83 2.0 NNE 7 11 4 6 - - 2.8
26/06:30am 23.4 26.5 21.1 87 1.5 N 6 9 3 5 - - 2.8
26/06:00am 22.6 26.1 21.1 91 1.0 N 4 7 2 4 - - 2.8
26/05:30am 22.2 25.9 20.7 91 1.0 NNE 2 7 1 4 - - 2.8
26/05:00am 22.1 26.1 20.6 91 1.0 CALM 0 0 0 0 - - 2.8
26/04:30am 22.5 26.3 21.0 91 1.0 N 2 6 1 3 - - 2.8
26/04:00am 22.6 25.5 21.1 91 1.0 N 7 9 4 5 - - 2.8
26/03:30am 22.6 26.1 21.1 91 1.0 NE 4 9 2 5 - - 2.8
26/03:00am 22.5 25.6 21.0 91 1.0 NNE 6 13 3 7 - - 2.8
26/02:30am 22.4 25.5 21.0 92 0.9 NNE 6 9 3 5 - - 2.8
26/02:00am 22.5 26.8 21.1 92 0.9 CALM 0 0 0 0 - - 2.8
26/01:30am 22.4 26.6 21.0 92 0.9 CALM 0 6 0 3 - - 2.8
26/01:00am 22.6 26.5 21.1 91 1.0 N 2 7 1 4 - - 2.8
26/12:30am 22.7 25.9 21.2 91 1.0 N 6 7 3 4 - - 2.6
26/12:00am 23.1 27.4 21.2 89 1.2 CALM 0 0 0 0 - - 2.6
 
Date/Time
EST
Tmp

°C
App
Tmp
°C
Dew
Point
°C
Rel
Hum
%
Delta-T

°C
Wind Press
QNH
hPa
Press
MSL
hPa
Rain
since
9 am
mm
Dir
 
Spd
km/h
Gust
km/h
Spd
kts
Gust
kts
25/11:30pm 23.4 27.5 21.5 89 1.3 NNE 2 7 1 4 - - 2.6
25/11:00pm 24.0 27.6 21.3 85 1.8 E 4 7 2 4 - - 0.0
25/10:30pm 24.1 27.4 21.4 85 1.8 SE 6 7 3 4 - - 0.0
25/10:00pm 23.3 26.9 20.6 85 1.8 NE 2 9 1 5 - - 0.0
25/09:30pm 23.5 26.3 20.4 83 2.0 E 6 7 3 4 - - 0.0
25/09:00pm 23.7 26.5 20.4 82 2.1 E 6 11 3 6 - - 0.0
25/08:30pm 23.7 26.9 20.4 82 2.1 E 4 7 2 4 - - 0.0
25/08:00pm 23.6 26.0 20.1 81 2.3 ENE 7 13 4 7 - - 0.0
25/07:30pm 23.9 25.9 20.0 79 2.5 NE 9 17 5 9 - - 0.0
25/07:00pm 24.1 25.7 20.0 78 2.7 NNE 11 20 6 11 - - 0.0
25/06:30pm 24.6 26.4 20.3 77 2.8 NE 11 17 6 9 - - 0.0
25/06:00pm 25.3 27.1 20.3 74 3.3 NE 11 24 6 13 - - 0.0
25/05:30pm 26.5 28.7 19.6 66 4.5 NE 7 20 4 11 - - 0.0
25/05:00pm 28.1 29.9 18.8 57 6.0 ENE 7 19 4 10 - - 0.0
25/04:30pm 29.0 30.4 18.7 53 6.6 NE 9 17 5 9 - - 0.0
25/04:00pm 29.4 30.1 18.8 53 6.9 NE 13 22 7 12 - - 0.0
25/03:30pm 30.3 30.9 18.7 50 7.5 NE 13 24 7 13 - - 0.0
25/03:00pm 30.5 31.1 18.6 49 7.7 NNE 13 26 7 14 - - 0.0
25/02:30pm 31.5 32.8 19.2 48 8.0 ENE 11 20 6 11 - - 0.0
25/02:00pm 31.8 32.4 18.7 45 8.5 ENE 13 20 7 11 - - 0.0
25/01:30pm 32.4 33.4 18.6 44 9.0 NE 11 30 6 16 - - 0.0
25/01:00pm 31.4 31.6 17.7 44 8.8 ENE 13 24 7 13 - - 0.0
25/12:30pm 31.6 31.8 16.7 40 9.4 E 11 22 6 12 - - 0.0
25/12:00pm 32.0 32.0 16.3 39 9.9 E 11 19 6 10 - - 0.0
25/11:30am 31.6 31.3 13.4 33 10.9 N 7 15 4 8 - - 0.0
25/11:00am 30.9 30.1 12.8 33 10.8 N 9 15 5 8 - - 0.0
25/10:30am 30.6 29.9 12.0 32 10.9 E 7 13 4 7 - - 0.0
25/10:00am 29.2 28.1 13.0 37 9.6 NNE 11 17 6 9 - - 0.0
25/09:30am 28.3 27.9 14.2 42 8.5 NE 9 17 5 9 - - 0.0
25/09:00am 27.8 27.8 15.1 46 7.7 NNE 9 19 5 10 - - 0.0
25/08:30am 26.5 26.2 15.5 50 6.7 NNE 11 19 6 10 - - 0.0
25/08:00am 25.2 25.4 15.8 56 5.7 NW 9 20 5 11 - - 0.0
25/07:30am 24.5 26.2 17.2 63 4.5 WSW 4 7 2 4 - - 0.0
25/07:00am 23.5 25.9 17.9 71 3.5 W 2 6 1 3 - - 0.0
25/06:30am 23.2 25.9 19.4 79 2.4 SW 4 9 2 5 - - 0.0
25/06:00am 20.7 23.9 18.8 89 1.2 CALM 0 7 0 4 - - 0.0
25/05:30am 19.0 21.7 17.7 92 0.8 CALM 0 0 0 0 - - 0.0
25/05:00am 18.2 19.4 16.9 92 0.8 NE 6 9 3 5 - - 0.0
25/04:30am 18.7 21.2 17.2 91 0.9 CALM 0 0 0 0 - - 0.0
25/04:00am 19.2 21.1 17.7 91 0.9 NE 4 7 2 4 - - 0.0
25/03:30am 18.8 21.2 17.1 90 1.0 CALM 0 0 0 0 - - 0.0
25/03:00am 19.0 21.4 17.0 88 1.2 CALM 0 0 0 0 - - 0.0
25/02:30am 19.4 21.9 17.2 87 1.3 CALM 0 0 0 0 - - 0.0
25/02:00am 20.2 22.8 17.4 84 1.7 CALM 0 0 0 0 - - 0.0
25/01:30am 21.1 22.9 18.3 84 1.7 NNE 6 11 3 6 - - 0.0
25/01:00am 21.3 22.9 18.3 83 1.9 NNE 7 11 4 6 - - 0.0
25/12:30am 21.9 23.2 18.5 81 2.1 NNE 9 15 5 8 - - 0.0
25/12:00am 22.0 23.4 18.6 81 2.1 NNE 9 15 5 8 - - 0.0
 
Date/Time
EST
Tmp

°C
App
Tmp
°C
Dew
Point
°C
Rel
Hum
%
Delta-T

°C
Wind Press
QNH
hPa
Press
MSL
hPa
Rain
since
9 am
mm
Dir
 
Spd
km/h
Gust
km/h
Spd
kts
Gust
kts
24/11:30pm 22.2 23.3 18.8 81 2.1 NNE 11 15 6 8 - - 0.0
24/11:00pm 22.3 23.2 18.5 79 2.4 NNE 11 19 6 10 - - 0.0
24/10:30pm 22.6 23.7 18.8 79 2.4 NNE 11 22 6 12 - - 0.0
24/10:00pm 23.0 24.0 18.7 77 2.7 NNE 11 24 6 13 - - 0.0
24/09:30pm 23.4 24.5 18.9 76 2.9 NNE 11 22 6 12 - - 0.0
24/09:00pm 23.1 24.2 18.8 77 2.7 NNE 11 20 6 11 - - 0.0
24/08:30pm 23.0 23.8 19.0 78 2.5 NNE 13 22 7 12 - - 0.0
24/08:00pm 23.0 24.2 19.0 78 2.5 NNE 11 17 6 9 - - 0.0
24/07:30pm 23.3 23.7 19.0 77 2.7 NNE 15 26 8 14 - - 0.0
24/07:00pm 23.6 24.0 19.1 76 2.9 NNE 15 32 8 17 - - 0.0
24/06:30pm 23.8 24.8 18.7 73 3.2 NNE 11 19 6 10 - - 0.0

Latest Capital City Observations: Canberra | Sydney | Melbourne | Brisbane | Adelaide | Perth | Hobart | Darwin

Other Formats:

Comma delimited format used in spreadsheet applications
http://www.bom.gov.au/fwo/IDQ60901/IDQ60901.95566.axf

JavaScript Object Notation format (JSON) in row-major order
http://www.bom.gov.au/fwo/IDQ60901/IDQ60901.95566.json